Time;durP1;ratioP1;P1;durP2;ratioP2;P2;SDS_P1;SDS_P2;PMS_P1;PMS_P2;Temp;Humidity;BMP_temperature;BMP_pressure;BME280_temperature;BME280_humidity;BME280_pressure;Samples;Min_cycle;Max_cycle;Signal;HPM_P1;HPM_P2
2022/01/23 00:00:44;;;;;;;;;;;;;;;27.02;56.10;97308.80;600706;235;65662;-68
2022/01/23 00:03:17;;;;;;;;;;;;;;;27.04;57.88;97313.88;601344;236;68469;-68
2022/01/23 00:05:43;;;;;;;;;;;;;;;27.02;55.02;97303.41;600548;235;65131;-68
2022/01/23 00:08:12;;;;;;;;;;;;;;;27.04;57.76;97303.09;601067;236;68670;-67
2022/01/23 00:10:40;;;;;;;;;;;;;;;27.04;56.76;97306.61;601313;235;66352;-68
2022/01/23 00:13:17;;;;;;;;;;;;;;;27.03;53.27;97304.99;601264;235;65096;-68
2022/01/23 00:18:28;;;;;;;;;;;;;;;27.00;57.41;97302.91;601243;235;68542;-68
2022/01/23 00:20:54;;;;;;;;;;;;;;;26.98;57.55;97305.92;601074;236;68326;-68
2022/01/23 00:31:24;;;;;;;;;;;;;;;26.95;55.67;97305.71;600936;235;68382;-68
2022/01/23 00:33:54;;;;;;;;;;;;;;;26.96;53.49;97308.12;601263;236;68391;-68
2022/01/23 00:36:22;;;;;;;;;;;;;;;26.95;56.77;97316.50;601325;236;62689;-68
2022/01/23 00:38:50;;;;;;;;;;;;;;;26.93;56.46;97321.42;601014;235;68485;-68
2022/01/23 00:41:17;;;;;;;;;;;;;;;26.93;52.29;97321.42;601039;236;69109;-68
2022/01/23 00:43:45;;;;;;;;;;;;;;;26.92;54.44;97317.11;599389;234;65093;-68
2022/01/23 00:49:30;;;;;;;;;;;;;;;26.91;57.03;97326.31;596321;237;68369;-68
2022/01/23 00:51:20;;;;;;;;;;;;;;;26.88;57.78;97326.92;593135;237;66043;-67
2022/01/23 00:53:48;;;;;;;;;;;;;;;26.88;54.86;97322.31;596430;238;69138;-67
2022/01/23 00:56:15;;;;;;;;;;;;;;;26.88;55.82;97327.70;596031;237;68613;-67
2022/01/23 00:58:44;;;;;;;;;;;;;;;26.85;55.80;97336.41;596464;238;64881;-67
2022/01/23 01:01:13;;;;;;;;;;;;;;;26.87;58.09;97333.39;596350;237;69031;-67
2022/01/23 01:03:41;;;;;;;;;;;;;;;26.85;56.99;97335.61;596277;237;69111;-65
2022/01/23 01:06:08;;;;;;;;;;;;;;;26.82;58.76;97331.62;596220;234;62923;-64
2022/01/23 01:08:36;;;;;;;;;;;;;;;26.81;55.80;97331.91;596479;237;68523;-64
2022/01/23 01:11:32;;;;;;;;;;;;;;;26.81;56.39;97331.91;596307;238;68426;-64
2022/01/23 01:35:40;;;;;;;;;;;;;;;26.72;58.19;97331.82;596439;234;68596;-65
2022/01/23 01:38:00;;;;;;;;;;;;;;;26.67;56.59;97327.32;595646;237;65172;-65
2022/01/23 01:40:28;;;;;;;;;;;;;;;26.68;57.47;97334.33;596468;238;65951;-65
2022/01/23 01:42:56;;;;;;;;;;;;;;;26.67;58.54;97332.71;596367;236;68516;-65
2022/01/23 01:45:25;;;;;;;;;;;;;;;26.67;54.39;97329.22;596340;237;65217;-65
2022/01/23 01:48:00;;;;;;;;;;;;;;;26.66;56.88;97328.43;596116;237;47174;-65
2022/01/23 01:50:29;;;;;;;;;;;;;;;26.66;57.19;97324.94;596469;237;68473;-65
2022/01/23 01:52:58;;;;;;;;;;;;;;;26.64;57.86;97324.44;596335;236;46240;-65
2022/01/23 01:55:30;;;;;;;;;;;;;;;26.63;58.26;97326.34;596308;237;69458;-65
2022/01/23 01:58:02;;;;;;;;;;;;;;;26.63;54.75;97331.73;596532;236;47203;-65
2022/01/23 02:00:52;;;;;;;;;;;;;;;26.63;58.83;97331.73;596611;238;38692;-65
2022/01/23 02:08:48;;;;;;;;;;;;;;;26.57;58.93;97330.21;596323;237;65212;-65
2022/01/23 02:11:39;;;;;;;;;;;;;;;26.58;57.54;97326.44;596463;237;68758;-65
2022/01/23 02:52:30;;;;;;;;;;;;;;;26.40;55.68;97343.46;596217;237;66331;-68
2022/01/23 02:54:52;;;;;;;;;;;;;;;26.42;55.70;97358.23;595778;237;68745;-68
2022/01/23 02:57:11;;;;;;;;;;;;;;;26.41;58.77;97350.44;596055;237;65283;-68
2022/01/23 02:59:40;;;;;;;;;;;;;;;26.41;54.53;97355.83;596515;237;68574;-68
2022/01/23 03:02:26;;;;;;;;;;;;;;;26.39;59.79;97366.13;588764;238;50572;-66
2022/01/23 03:04:53;;;;;;;;;;;;;;;26.37;56.94;97366.41;595967;237;47216;-67
2022/01/23 03:10:27;;;;;;;;;;;;;;;26.34;59.59;97356.23;596483;237;67233;-68
2022/01/23 03:13:38;;;;;;;;;;;;;;;26.31;56.63;97354.14;596272;237;65311;-67
2022/01/23 03:32:00;;;;;;;;;;;;;;;26.23;58.77;97360.21;596136;237;69246;-67
2022/01/23 03:34:14;;;;;;;;;;;;;;;26.23;58.68;97366.39;595801;237;69031;-67
2022/01/23 03:36:41;;;;;;;;;;;;;;;26.23;60.66;97361.00;596503;237;62784;-67
2022/01/23 03:39:09;;;;;;;;;;;;;;;26.23;56.21;97358.31;596447;237;69096;-67
2022/01/23 03:41:38;;;;;;;;;;;;;;;26.21;54.37;97368.58;596350;238;66408;-67
2022/01/23 03:44:08;;;;;;;;;;;;;;;26.20;58.34;97361.60;596039;236;65008;-67
2022/01/23 03:49:31;;;;;;;;;;;;;;;26.20;55.87;97369.69;589784;237;69464;-64
2022/01/23 03:52:01;;;;;;;;;;;;;;;26.18;58.45;97373.77;596416;234;44662;-64
2022/01/23 03:54:30;;;;;;;;;;;;;;;26.17;58.87;97369.48;591406;238;67474;-64
2022/01/23 03:56:58;;;;;;;;;;;;;;;26.14;58.38;97368.18;596435;238;68724;-64
2022/01/23 03:59:27;;;;;;;;;;;;;;;26.12;58.72;97371.16;596198;237;63088;-64
2022/01/23 04:01:54;;;;;;;;;;;;;;;26.12;57.54;97365.77;596437;237;69579;-64
2022/01/23 04:04:37;;;;;;;;;;;;;;;26.11;59.77;97368.77;596459;238;68705;-67
2022/01/23 04:06:51;;;;;;;;;;;;;;;26.09;58.26;97370.95;595887;237;65768;-68
2022/01/23 04:09:19;;;;;;;;;;;;;;;26.10;58.27;97364.47;596495;236;66589;-67
2022/01/23 04:11:47;;;;;;;;;;;;;;;26.10;59.39;97370.64;596434;237;68789;-67
2022/01/23 04:14:17;;;;;;;;;;;;;;;26.07;58.93;97370.45;596436;237;65302;-68
2022/01/23 04:19:33;;;;;;;;;;;;;;;26.05;57.03;97383.41;596451;237;68756;-67
2022/01/23 04:33:14;;;;;;;;;;;;;;;26.01;59.22;97385.09;596454;238;67336;-68
2022/01/23 04:45:16;;;;;;;;;;;;;;;25.99;58.64;97388.08;595824;237;69273;-67
2022/01/23 04:59:52;;;;;;;;;;;;;;;25.89;58.09;97407.08;601334;235;68808;-67
2022/01/23 05:05:06;;;;;;;;;;;;;;;25.87;57.44;97412.77;601335;235;50465;-67
2022/01/23 05:07:55;;;;;;;;;;;;;;;25.89;57.22;97412.47;601275;235;44428;-67
2022/01/23 05:10:40;;;;;;;;;;;;;;;25.87;58.05;97415.47;601419;235;41447;-67
2022/01/23 05:13:12;;;;;;;;;;;;;;;25.85;55.25;97416.85;600693;235;46709;-67
2022/01/23 05:15:40;;;;;;;;;;;;;;;25.85;57.47;97424.92;601314;235;69380;-67
2022/01/23 05:18:08;;;;;;;;;;;;;;;25.83;58.91;97438.67;601137;235;65315;-67
2022/01/23 05:20:37;;;;;;;;;;;;;;;25.84;56.42;97434.11;601280;235;66979;-67
2022/01/23 05:23:06;;;;;;;;;;;;;;;25.84;59.80;97445.67;601259;235;66688;-67
2022/01/23 05:25:36;;;;;;;;;;;;;;;25.82;57.90;97437.05;601188;236;63882;-67
2022/01/23 05:28:03;;;;;;;;;;;;;;;25.78;58.42;97443.30;601038;235;66621;-67
2022/01/23 05:30:31;;;;;;;;;;;;;;;25.78;60.66;97435.22;601286;235;68582;-67
2022/01/23 05:33:00;;;;;;;;;;;;;;;25.75;58.51;97439.30;601226;235;65099;-67
2022/01/23 05:35:30;;;;;;;;;;;;;;;25.74;57.42;97445.78;601163;235;67578;-67
2022/01/23 05:38:00;;;;;;;;;;;;;;;25.74;58.33;97439.61;601323;235;47656;-67
2022/01/23 05:40:30;;;;;;;;;;;;;;;25.74;58.21;97445.78;601289;235;64989;-67
2022/01/23 05:42:58;;;;;;;;;;;;;;;25.74;57.54;97456.55;601009;235;68738;-67
2022/01/23 05:45:26;;;;;;;;;;;;;;;25.76;54.02;97445.50;596426;234;66254;-67
2022/01/23 05:48:09;;;;;;;;;;;;;;;25.76;58.93;97457.06;596531;237;47405;-67
2022/01/23 05:50:45;;;;;;;;;;;;;;;25.74;59.01;97456.55;596580;235;49894;-67
2022/01/23 05:53:30;;;;;;;;;;;;;;;25.69;59.73;97454.72;596413;237;50619;-67
2022/01/23 05:55:59;;;;;;;;;;;;;;;25.67;59.95;97465.00;592763;237;46799;-67
2022/01/23 05:58:28;;;;;;;;;;;;;;;25.66;57.98;97476.05;596007;237;47132;-67
2022/01/23 06:00:57;;;;;;;;;;;;;;;25.67;60.74;97461.48;596467;237;69026;-67
2022/01/23 06:03:24;;;;;;;;;;;;;;;25.67;59.63;97466.87;596526;237;62690;-67
2022/01/23 06:05:57;;;;;;;;;;;;;;;25.65;59.84;97469.08;596217;237;45877;-67
2022/01/23 06:08:26;;;;;;;;;;;;;;;25.63;59.16;97482.81;596297;237;47645;-65
2022/01/23 06:10:59;;;;;;;;;;;;;;;25.65;60.35;97479.84;596455;238;65120;-65
2022/01/23 06:13:26;;;;;;;;;;;;;;;25.67;57.55;97480.33;593896;237;50040;-65
2022/01/23 06:15:54;;;;;;;;;;;;;;;25.63;55.74;97477.42;596510;237;68796;-65
2022/01/23 06:18:22;;;;;;;;;;;;;;;25.65;58.42;97475.25;596464;238;64948;-65
2022/01/23 06:21:08;;;;;;;;;;;;;;;25.65;58.70;97480.64;596471;237;43705;-65
2022/01/23 06:23:38;;;;;;;;;;;;;;;25.62;57.82;97478.53;592462;237;48364;-65
2022/01/23 06:26:07;;;;;;;;;;;;;;;25.62;56.87;97491.98;596253;237;46959;-66
2022/01/23 06:28:38;;;;;;;;;;;;;;;25.60;57.30;97480.70;596291;237;46356;-65
2022/01/23 06:31:05;;;;;;;;;;;;;;;25.60;55.12;97482.59;596251;237;68340;-65
2022/01/23 06:33:36;;;;;;;;;;;;;;;25.63;56.74;97490.09;596426;237;66127;-66
2022/01/23 06:36:05;;;;;;;;;;;;;;;25.61;59.98;97494.95;596291;237;68644;-66
2022/01/23 06:38:33;;;;;;;;;;;;;;;25.58;56.28;97490.16;596472;235;68442;-65
2022/01/23 06:41:04;;;;;;;;;;;;;;;25.59;54.76;97487.19;596018;237;62805;-65
2022/01/23 06:43:50;;;;;;;;;;;;;;;25.58;56.20;97476.70;596513;236;39106;-66
2022/01/23 06:46:26;;;;;;;;;;;;;;;25.58;54.48;97488.26;596119;237;49395;-66
2022/01/23 06:48:54;;;;;;;;;;;;;;;25.59;57.23;97486.36;596352;237;65815;-66
2022/01/23 06:51:22;;;;;;;;;;;;;;;25.58;54.00;97490.16;596516;238;69723;-66
2022/01/23 06:53:51;;;;;;;;;;;;;;;25.58;58.38;97492.84;596463;237;69219;-66
2022/01/23 06:56:19;;;;;;;;;;;;;;;25.58;56.89;97479.39;596427;237;62812;-66
2022/01/23 06:58:48;;;;;;;;;;;;;;;25.58;55.52;97482.08;596024;237;69535;-66
2022/01/23 07:01:15;;;;;;;;;;;;;;;25.59;57.80;97494.44;596463;238;68636;-66
2022/01/23 07:03:50;;;;;;;;;;;;;;;25.58;59.02;97484.77;596035;235;43911;-66
2022/01/23 07:06:38;;;;;;;;;;;;;;;25.57;61.02;97486.66;595936;234;50009;-66
2022/01/23 07:09:13;;;;;;;;;;;;;;;25.58;57.85;97479.39;596176;237;47201;-66
2022/01/23 07:11:52;;;;;;;;;;;;;;;25.58;58.76;97490.16;596008;237;44872;-66
2022/01/23 07:14:27;;;;;;;;;;;;;;;25.57;59.21;97483.97;589841;237;51163;-66
2022/01/23 07:16:59;;;;;;;;;;;;;;;25.55;60.35;97486.15;596474;236;47064;-66
2022/01/23 07:19:35;;;;;;;;;;;;;;;25.58;60.26;97487.46;594099;238;46359;-67
2022/01/23 07:22:04;;;;;;;;;;;;;;;25.52;58.56;97484.04;596287;237;46449;-67
2022/01/23 07:24:37;;;;;;;;;;;;;;;25.56;57.64;97486.94;596411;238;68955;-67
2022/01/23 07:27:12;;;;;;;;;;;;;;;25.57;55.17;97488.56;596163;234;63282;-67
2022/01/23 07:29:33;;;;;;;;;;;;;;;25.57;57.01;97483.18;595952;237;69442;-67
2022/01/23 07:32:06;;;;;;;;;;;;;;;25.55;58.99;97485.35;596467;237;68792;-67
2022/01/23 07:34:29;;;;;;;;;;;;;;;25.57;59.62;97483.97;596241;237;63838;-67
2022/01/23 07:36:59;;;;;;;;;;;;;;;25.58;58.99;97487.46;596322;237;47261;-64
2022/01/23 07:39:28;;;;;;;;;;;;;;;25.58;59.26;97490.16;594893;237;49750;-64
2022/01/23 07:41:57;;;;;;;;;;;;;;;25.60;55.95;97493.36;596197;237;41808;-64
2022/01/23 07:44:27;;;;;;;;;;;;;;;25.59;59.00;97491.74;591589;235;49700;-67
2022/01/23 07:47:12;;;;;;;;;;;;;;;25.62;58.39;97485.80;588687;240;49773;-65
2022/01/23 07:49:57;;;;;;;;;;;;;;;25.62;58.53;97483.12;599117;235;41041;-65
2022/01/23 07:52:29;;;;;;;;;;;;;;;25.60;59.64;97479.91;600756;235;48709;-66
2022/01/23 07:54:57;;;;;;;;;;;;;;;25.61;59.05;97476.11;601371;235;48662;-66
2022/01/23 07:57:33;;;;;;;;;;;;;;;25.62;59.25;97475.04;601575;235;46509;-66
2022/01/23 08:00:18;;;;;;;;;;;;;;;25.64;58.72;97476.33;601465;235;52432;-66
2022/01/23 08:02:45;;;;;;;;;;;;;;;25.65;60.76;97479.84;601821;235;69144;-66
2022/01/23 08:05:26;;;;;;;;;;;;;;;25.64;58.09;97480.91;601632;235;44839;-66
2022/01/23 08:08:12;;;;;;;;;;;;;;;25.65;60.11;97479.84;602043;235;41898;-66
2022/01/23 08:10:50;;;;;;;;;;;;;;;25.66;59.01;97481.43;601670;235;48384;-68
2022/01/23 08:13:19;;;;;;;;;;;;;;;25.66;58.67;97482.23;601844;235;62879;-68
2022/01/23 08:15:48;;;;;;;;;;;;;;;25.66;59.74;97479.53;601901;235;68564;-68
2022/01/23 08:18:16;;;;;;;;;;;;;;;25.65;59.15;97480.64;601886;235;68575;-68
2022/01/23 08:20:43;;;;;;;;;;;;;;;25.66;60.69;97484.13;601929;235;64867;-68
2022/01/23 08:23:12;;;;;;;;;;;;;;;25.65;58.53;97485.22;601774;235;68637;-67
2022/01/23 08:25:42;;;;;;;;;;;;;;;25.67;58.98;97485.71;601822;235;68745;-66
2022/01/23 08:28:09;;;;;;;;;;;;;;;25.67;59.24;97485.71;601836;235;65182;-65
2022/01/23 08:30:37;;;;;;;;;;;;;;;25.67;59.33;97483.02;601789;235;68652;-66
2022/01/23 08:33:04;;;;;;;;;;;;;;;25.67;58.69;97483.02;601872;235;68328;-66
2022/01/23 08:35:32;;;;;;;;;;;;;;;25.68;59.01;97490.02;601771;235;65063;-66
2022/01/23 08:37:59;;;;;;;;;;;;;;;25.68;58.87;97490.82;601803;235;66536;-66
2022/01/23 08:43:12;;;;;;;;;;;;;;;25.70;58.96;97490.55;601536;235;62738;-66
2022/01/23 08:45:40;;;;;;;;;;;;;;;25.72;60.13;97493.72;599458;236;68837;-66
2022/01/23 08:48:08;;;;;;;;;;;;;;;25.71;59.25;97492.13;599539;236;68610;-66
2022/01/23 08:50:37;;;;;;;;;;;;;;;25.71;60.06;97500.20;599506;236;65106;-66
2022/01/23 08:53:05;;;;;;;;;;;;;;;25.71;60.08;97489.44;599393;236;68623;-66
2022/01/23 08:55:33;;;;;;;;;;;;;;;25.73;60.79;97491.83;599443;236;68557;-66
2022/01/23 08:58:03;;;;;;;;;;;;;;;25.74;60.59;97501.52;598452;236;65011;-66
2022/01/23 09:00:31;;;;;;;;;;;;;;;25.73;60.31;97492.66;599028;236;69610;-66
2022/01/23 09:02:58;;;;;;;;;;;;;;;25.74;60.44;97488.86;599564;236;66416;-66
2022/01/23 09:05:27;;;;;;;;;;;;;;;25.74;60.89;97483.47;599312;236;62972;-66
2022/01/23 09:07:54;;;;;;;;;;;;;;;25.75;59.80;97484.27;599418;236;66774;-66
2022/01/23 09:10:39;;;;;;;;;;;;;;;25.76;61.11;97481.30;599237;236;66514;-66
2022/01/23 09:13:07;;;;;;;;;;;;;;;25.77;59.55;97482.89;598900;236;62714;-65
2022/01/23 09:15:24;;;;;;;;;;;;;;;25.79;60.96;97475.33;598756;235;69062;-66
2022/01/23 09:17:52;;;;;;;;;;;;;;;25.78;61.35;97471.05;599417;236;68596;-66
2022/01/23 09:20:19;;;;;;;;;;;;;;;25.80;59.45;97470.73;599277;236;66069;-66
2022/01/23 09:22:47;;;;;;;;;;;;;;;25.81;59.70;97469.63;599385;236;68636;-67
2022/01/23 09:25:14;;;;;;;;;;;;;;;25.80;58.68;97460.77;599409;236;68646;-66
2022/01/23 09:27:42;;;;;;;;;;;;;;;25.82;59.11;97458.59;599514;236;65055;-67
2022/01/23 09:30:17;;;;;;;;;;;;;;;25.84;60.12;97453.75;599420;236;68690;-67
2022/01/23 09:32:41;;;;;;;;;;;;;;;25.84;60.33;97451.05;599187;236;68767;-67
2022/01/23 09:35:08;;;;;;;;;;;;;;;25.87;60.51;97455.06;599432;236;65145;-68
2022/01/23 09:37:36;;;;;;;;;;;;;;;25.87;60.75;97441.59;599516;236;68861;-68
2022/01/23 09:40:05;;;;;;;;;;;;;;;25.89;60.05;97444.77;599365;236;68576;-68
2022/01/23 09:42:34;;;;;;;;;;;;;;;25.89;58.71;97442.91;599510;236;63025;-68
2022/01/23 09:45:04;;;;;;;;;;;;;;;25.91;58.83;97440.70;598514;235;66671;-68
2022/01/23 09:47:32;;;;;;;;;;;;;;;25.91;58.62;97446.09;599065;236;68343;-67
2022/01/23 09:50:03;;;;;;;;;;;;;;;25.95;56.89;97437.45;599384;236;65151;-67
2022/01/23 09:52:33;;;;;;;;;;;;;;;25.97;59.65;97432.55;599150;236;66370;-67
2022/01/23 09:55:07;;;;;;;;;;;;;;;25.97;59.67;97425.27;599476;236;66954;-66
2022/01/23 09:57:32;;;;;;;;;;;;;;;25.98;58.30;97437.66;599302;236;62719;-66
2022/01/23 10:00:00;;;;;;;;;;;;;;;26.02;59.55;97429.78;599503;236;66355;-66
2022/01/23 10:02:31;;;;;;;;;;;;;;;26.03;59.37;97434.09;599498;236;66632;-66
2022/01/23 10:04:58;;;;;;;;;;;;;;;26.04;58.71;97427.59;599447;236;65147;-66
2022/01/23 10:07:27;;;;;;;;;;;;;;;26.06;58.73;97433.50;599553;236;66643;-67
2022/01/23 10:10:07;;;;;;;;;;;;;;;26.05;57.22;97435.36;599459;236;68640;-68
2022/01/23 10:12:26;;;;;;;;;;;;;;;26.07;58.15;97432.39;599086;236;65271;-67
2022/01/23 10:14:57;;;;;;;;;;;;;;;26.08;58.33;97425.90;599546;236;68558;-67
2022/01/23 10:17:24;;;;;;;;;;;;;;;26.10;58.13;97431.80;599084;236;68586;-67
2022/01/23 10:19:52;;;;;;;;;;;;;;;26.11;58.20;97423.44;599448;236;66066;-67
2022/01/23 10:22:20;;;;;;;;;;;;;;;26.12;58.03;97426.92;599319;236;68850;-67
2022/01/23 10:24:47;;;;;;;;;;;;;;;26.13;57.51;97426.62;599415;236;69381;-67
2022/01/23 10:27:16;;;;;;;;;;;;;;;26.16;57.70;97425.23;599322;236;62682;-67
2022/01/23 10:29:46;;;;;;;;;;;;;;;26.18;57.56;97422.25;599516;236;68780;-68
2022/01/23 10:32:21;;;;;;;;;;;;;;;26.19;57.62;97419.28;599316;236;68743;-67
2022/01/23 10:34:50;;;;;;;;;;;;;;;26.20;58.05;97420.08;599500;236;64900;-67
2022/01/23 10:37:32;;;;;;;;;;;;;;;26.21;58.01;97411.68;599580;236;66315;-67
2022/01/23 10:40:01;;;;;;;;;;;;;;;26.22;56.93;97418.69;599443;236;68544;-67
2022/01/23 10:48:23;;;;;;;;;;;;;;;26.24;57.90;97408.39;600526;235;66472;-68
2022/01/23 10:50:27;;;;;;;;;;;;;;;26.27;55.83;97410.52;601585;235;65226;-68
2022/01/23 10:52:56;;;;;;;;;;;;;;;26.28;57.26;97404.02;602532;235;68117;-68
2022/01/23 10:55:25;;;;;;;;;;;;;;;26.29;56.91;97402.91;602442;235;68515;-68
2022/01/23 10:57:54;;;;;;;;;;;;;;;26.28;56.16;97395.14;602477;235;65243;-67
2022/01/23 11:00:27;;;;;;;;;;;;;;;26.28;56.07;97400.53;602402;235;66426;-68
2022/01/23 11:02:55;;;;;;;;;;;;;;;26.26;56.70;97403.52;597279;234;68433;-66
2022/01/23 11:05:24;;;;;;;;;;;;;;;26.25;56.34;97401.92;602543;235;63680;-66
2022/01/23 11:07:52;;;;;;;;;;;;;;;26.27;55.66;97398.92;601833;235;68664;-66
2022/01/23 11:10:21;;;;;;;;;;;;;;;26.26;49.76;97387.34;602456;235;69027;-66
2022/01/23 11:18:11;;;;;;;;;;;;;;;26.30;56.69;97380.28;602551;235;68768;-65
2022/01/23 11:20:40;;;;;;;;;;;;;;;26.31;56.78;97378.39;602562;235;64682;-65
2022/01/23 11:23:18;;;;;;;;;;;;;;;26.32;56.45;97372.68;602486;235;68800;-67
2022/01/23 11:26:00;;;;;;;;;;;;;;;26.31;58.21;97365.70;602406;235;68942;-67
2022/01/23 11:28:31;;;;;;;;;;;;;;;26.31;58.31;97378.39;602211;235;64023;-65
2022/01/23 11:30:59;;;;;;;;;;;;;;;26.32;56.12;97375.38;602465;235;68473;-67
2022/01/23 11:33:26;;;;;;;;;;;;;;;26.34;56.32;97375.89;602458;235;66452;-65
2022/01/23 11:35:54;;;;;;;;;;;;;;;26.35;56.22;97363.20;602495;235;62678;-66
2022/01/23 11:38:23;;;;;;;;;;;;;;;26.36;57.44;97359.44;602488;235;68894;-67
2022/01/23 11:54:39;;;;;;;;;;;;;;;26.46;54.93;97353.04;596294;237;68892;-59
2022/01/23 11:57:25;;;;;;;;;;;;;;;26.49;54.89;97353.27;596425;237;68766;-59
2022/01/23 12:00:06;;;;;;;;;;;;;;;26.53;57.22;97356.18;596084;237;48724;-60
2022/01/23 12:02:44;;;;;;;;;;;;;;;26.55;54.36;97357.48;596413;236;46247;-59
2022/01/23 12:05:15;;;;;;;;;;;;;;;26.59;56.24;97357.67;596077;237;66473;-68
2022/01/23 12:07:44;;;;;;;;;;;;;;;26.60;54.41;97359.29;596433;237;63747;-68
2022/01/23 12:10:29;;;;;;;;;;;;;;;26.61;56.70;97360.88;596242;237;66590;-69
2022/01/23 12:13:21;;;;;;;;;;;;;;;26.61;55.88;97360.08;596024;234;68704;-65
2022/01/23 12:18:30;;;;;;;;;;;;;;;26.63;57.97;97358.69;596486;234;68956;-65
2022/01/23 12:20:57;;;;;;;;;;;;;;;26.64;57.91;97354.09;596459;237;68495;-65
2022/01/23 12:23:24;;;;;;;;;;;;;;;26.65;56.16;97342.98;596403;237;65286;-66
2022/01/23 12:25:53;;;;;;;;;;;;;;;26.67;56.68;97348.09;596466;234;68836;-65
2022/01/23 12:28:28;;;;;;;;;;;;;;;26.68;58.63;97349.68;596424;237;68971;-63
2022/01/23 12:30:57;;;;;;;;;;;;;;;26.68;56.02;97350.50;596471;234;65159;-64
2022/01/23 12:33:30;;;;;;;;;;;;;;;26.69;56.10;97352.09;596363;237;66593;-63
2022/01/23 12:35:59;;;;;;;;;;;;;;;26.70;58.28;97352.88;596420;238;66946;-63
2022/01/23 12:38:30;;;;;;;;;;;;;;;26.70;56.06;97347.49;596465;238;65083;-63
2022/01/23 12:40:59;;;;;;;;;;;;;;;26.70;56.34;97342.89;596460;238;68721;-65
2022/01/23 12:43:28;;;;;;;;;;;;;;;26.70;57.50;97348.28;595801;236;68574;-67
2022/01/23 12:45:57;;;;;;;;;;;;;;;26.72;56.88;97346.09;596250;234;65089;-68
2022/01/23 12:48:29;;;;;;;;;;;;;;;26.72;56.98;97346.09;596311;235;68494;-69
2022/01/23 12:51:01;;;;;;;;;;;;;;;26.72;58.64;97339.91;596462;237;68560;-69
2022/01/23 12:53:42;;;;;;;;;;;;;;;26.73;59.18;97334.20;596398;237;65073;-64
2022/01/23 12:56:12;;;;;;;;;;;;;;;26.69;57.35;97327.83;596432;237;69048;-68
2022/01/23 12:58:40;;;;;;;;;;;;;;;26.67;53.57;97337.31;596350;234;66772;-66
2022/01/23 13:01:09;;;;;;;;;;;;;;;26.70;57.89;97340.20;596404;236;65087;-65
2022/01/23 13:03:38;;;;;;;;;;;;;;;26.68;58.25;97333.50;596591;235;66613;-65
2022/01/23 13:06:08;;;;;;;;;;;;;;;26.64;59.07;97335.22;596522;236;68681;-69
2022/01/23 13:08:45;;;;;;;;;;;;;;;26.63;58.98;97345.21;596428;236;64874;-73
2022/01/23 13:13:38;;;;;;;;;;;;;;;26.67;57.39;97343.50;596471;237;66489;-68
2022/01/23 13:19:20;;;;;;;;;;;;;;;26.66;58.27;97341.91;596481;237;68907;-73
2022/01/23 13:35:08;;;;;;;;;;;;;;;26.67;56.04;97343.50;596380;238;50818;-71
2022/01/23 13:37:35;;;;;;;;;;;;;;;26.67;57.07;97345.40;596460;237;66400;-59
2022/01/23 13:40:07;;;;;;;;;;;;;;;26.66;56.62;97347.30;596462;237;65292;-67
2022/01/23 13:47:54;;;;;;;;;;;;;;;26.62;55.97;97350.89;596455;236;68888;-71
2022/01/23 13:59:52;;;;;;;;;;;;;;;26.63;55.65;97353.30;596478;237;68814;-64
2022/01/23 14:02:26;;;;;;;;;;;;;;;26.62;56.97;97348.19;596466;237;68363;-68
2022/01/23 14:04:58;;;;;;;;;;;;;;;26.59;58.66;97346.89;596630;236;63149;-68
2022/01/23 14:07:27;;;;;;;;;;;;;;;26.60;56.69;97348.51;590699;236;66800;-67
2022/01/23 14:09:56;;;;;;;;;;;;;;;26.60;55.92;97345.81;596268;234;66589;-67
2022/01/23 14:12:25;;;;;;;;;;;;;;;26.62;57.49;97348.98;596441;234;63776;-68
2022/01/23 14:15:05;;;;;;;;;;;;;;;26.63;57.72;97347.08;596513;234;69102;-68
2022/01/23 14:17:32;;;;;;;;;;;;;;;26.62;56.62;97346.29;596054;238;68759;-68
2022/01/23 14:20:00;;;;;;;;;;;;;;;26.62;59.21;97340.89;596433;238;66058;-68
2022/01/23 14:22:30;;;;;;;;;;;;;;;26.63;57.03;97344.39;596235;236;49997;-68
2022/01/23 14:25:12;;;;;;;;;;;;;;;26.62;57.50;97346.29;596492;234;66447;-69
2022/01/23 14:27:40;;;;;;;;;;;;;;;26.66;57.37;97352.69;596429;237;65080;-69
2022/01/23 14:30:10;;;;;;;;;;;;;;;26.64;58.41;97349.49;596234;237;68439;-68
2022/01/23 14:32:45;;;;;;;;;;;;;;;26.64;58.81;97340.61;596448;237;68794;-69
2022/01/23 14:35:18;;;;;;;;;;;;;;;26.64;58.25;97343.31;596230;237;63081;-68
2022/01/23 14:37:47;;;;;;;;;;;;;;;26.64;59.03;97338.70;596587;237;68711;-68
2022/01/23 14:40:19;;;;;;;;;;;;;;;26.66;58.94;97352.69;596308;237;68522;-67
2022/01/23 14:42:59;;;;;;;;;;;;;;;26.66;57.27;97343.81;596149;237;64939;-68
2022/01/23 14:45:27;;;;;;;;;;;;;;;26.65;58.67;97348.37;601924;234;68626;-66
2022/01/23 14:47:55;;;;;;;;;;;;;;;26.66;57.54;97354.59;601949;235;68513;-69
2022/01/23 14:50:25;;;;;;;;;;;;;;;26.67;57.16;97351.58;601922;235;65125;-68
2022/01/23 14:52:54;;;;;;;;;;;;;;;26.69;59.11;97353.99;601928;235;66469;-68
2022/01/23 14:55:22;;;;;;;;;;;;;;;26.67;57.62;97367.76;601885;235;65880;-65
2022/01/23 14:57:50;;;;;;;;;;;;;;;26.68;58.80;97360.47;601914;235;63047;-66
2022/01/23 15:00:19;;;;;;;;;;;;;;;26.69;57.41;97362.08;601939;235;68373;-67
2022/01/23 15:02:46;;;;;;;;;;;;;;;26.67;58.48;97362.37;601924;235;68510;-67
2022/01/23 15:05:16;;;;;;;;;;;;;;;26.68;60.14;97369.38;601933;235;65090;-66
2022/01/23 15:07:43;;;;;;;;;;;;;;;26.67;59.60;97370.45;601867;235;68294;-68
2022/01/23 15:10:11;;;;;;;;;;;;;;;26.67;59.61;97375.84;601937;235;66281;-69
2022/01/23 15:12:39;;;;;;;;;;;;;;;26.67;58.00;97370.45;601944;235;65108;-68
2022/01/23 15:15:07;;;;;;;;;;;;;;;26.67;57.40;97370.45;601963;233;68500;-68
2022/01/23 15:17:38;;;;;;;;;;;;;;;26.67;58.39;97370.45;601899;235;68774;-68
2022/01/23 15:20:09;;;;;;;;;;;;;;;26.67;59.25;97375.84;601843;235;65272;-67
2022/01/23 15:22:37;;;;;;;;;;;;;;;26.67;58.61;97377.75;601899;235;68558;-66
2022/01/23 15:25:08;;;;;;;;;;;;;;;26.68;57.82;97373.94;601910;232;68482;-68
2022/01/23 15:27:36;;;;;;;;;;;;;;;26.67;59.98;97375.84;601923;235;63105;-67
2022/01/23 15:30:06;;;;;;;;;;;;;;;26.68;59.26;97379.33;601905;235;68849;-67
2022/01/23 15:32:34;;;;;;;;;;;;;;;26.67;60.29;97383.14;601890;235;68754;-68
2022/01/23 15:35:02;;;;;;;;;;;;;;;26.66;59.17;97378.86;601866;235;64876;-68
2022/01/23 15:37:29;;;;;;;;;;;;;;;26.65;60.29;97383.42;601903;235;68627;-68
2022/01/23 15:39:57;;;;;;;;;;;;;;;26.63;60.26;97385.64;601870;235;66412;-68
2022/01/23 15:42:24;;;;;;;;;;;;;;;26.63;58.54;97385.64;601842;235;62900;-68
2022/01/23 15:44:53;;;;;;;;;;;;;;;26.62;57.43;97392.11;601871;235;66699;-68
2022/01/23 15:47:21;;;;;;;;;;;;;;;26.62;57.67;97394.81;601862;235;68574;-68
2022/01/23 15:49:48;;;;;;;;;;;;;;;26.59;58.96;97406.19;601744;235;64985;-68
2022/01/23 15:52:16;;;;;;;;;;;;;;;26.59;58.39;97392.72;601370;235;70081;-68
2022/01/23 15:54:43;;;;;;;;;;;;;;;26.56;56.91;97402.19;601899;235;68547;-68
2022/01/23 15:57:11;;;;;;;;;;;;;;;26.59;58.31;97408.09;601852;235;63004;-68
2022/01/23 15:59:39;;;;;;;;;;;;;;;26.56;57.35;97406.80;601798;235;67417;-66
2022/01/23 16:02:07;;;;;;;;;;;;;;;26.57;58.63;97413.77;601862;235;68531;-67
2022/01/23 16:04:37;;;;;;;;;;;;;;;26.56;58.67;97412.19;601893;235;65070;-67
2022/01/23 16:07:06;;;;;;;;;;;;;;;26.56;56.41;97406.80;601923;235;68937;-67
2022/01/23 16:09:34;;;;;;;;;;;;;;;26.56;59.46;97414.88;601891;235;66583;-67
2022/01/23 16:12:02;;;;;;;;;;;;;;;26.55;57.47;97413.30;601894;235;64891;-67
2022/01/23 16:14:29;;;;;;;;;;;;;;;26.57;54.65;97416.47;601859;235;69082;-67
2022/01/23 16:16:57;;;;;;;;;;;;;;;26.58;57.13;97415.39;601882;235;66991;-67
2022/01/23 16:19:24;;;;;;;;;;;;;;;26.60;53.77;97421.28;601948;235;62900;-67
2022/01/23 16:21:54;;;;;;;;;;;;;;;26.58;57.56;97426.17;601917;235;66866;-67
2022/01/23 16:24:22;;;;;;;;;;;;;;;26.60;57.12;97418.59;601887;235;66425;-68
2022/01/23 16:26:50;;;;;;;;;;;;;;;26.60;57.80;97420.47;601903;235;62869;-68